Terminal Aerodrome Forecast
Issued by NWS Twin Cities, MN

Home | Current Version | Previous Version | Graphics & Text | Print | Product List | Glossary On
Versions: 1 2 3 4 5 6 7 8 9 10 11 12 13 14 15 16 17 18 19 20 21 22 23 24 25 26 27
000
FTUS43 KMPX 202000 AAA
TAFMSP
TAF AMD
KMSP 202049Z 2021/2124 09006KT P6SM FEW100 SCT250
     FM202200 15004KT P6SM SCT090
     FM210300 17004KT P6SM VCSH SCT060 BKN100
     FM210700 VRB03KT P6SM BKN060 OVC100
      TEMPO 2110/2113 5SM -SHRA BR
     FM211300 30007KT P6SM BKN120
     FM211600 31016G23KT P6SM SCT120=

USA.gov is the U.S. government's official web portal to all federal, state and local government web resources and services.